Latest Coastal Weather Observations for Burnie Port

IDT60701

Issued at 5:52 am EDT Sunday 29 March 2015 (issued every 10 minutes, with the page automatically refreshed every 10 minutes)

About coastal observations | Map of coastal stations | Coastal observations for TAS | Marine services | Other Formats
Station Details ID: 091344 Name: BURNIE NTC AWS Lat: -41.05 Lon: 145.91 Height: 0.0 m
Data from the previous 72 hours. | See also: Recent months for locations in Tasmania
Date/Time
EDT
Temp

°C
Wind Pressure Rain
since 9am
mm
Weather Cloud Vis
km
Sea
Height
m
Swell
Dir
 
Speed
knots
Gust
knots
hPa Trend Height
m
Period
s
Dir
29/05:30am 13.4 W 7 11 1018.1 - - - - - - - - -
29/05:00am 13.4 WSW 3 6 1017.8 - - - - - - - - -
29/04:30am 13.1 SW 4 7 1018.3 - - - - - - - - -
29/04:00am 13.1 W 5 8 1018.0 - - - - - - - - -
29/03:30am 13.0 W 7 11 1018.1 - - - - - - - - -
29/03:00am 13.1 W 7 12 1018.4 - - - - - - - - -
29/02:30am 13.1 WSW 7 11 1018.7 - - - - - - - - -
29/02:00am 13.0 W 5 10 1018.8 - - - - - - - - -
29/01:30am 12.9 W 4 9 1019.0 - - - - - - - - -
29/01:00am 12.8 WNW 5 8 1019.3 - - - - - - - - -
29/12:30am 12.5 WSW 6 10 1019.6 - - - - - - - - -
29/12:00am 12.3 W 6 9 1019.8 - - - - - - - - -
 
Date/Time
EDT
Temp

°C
Wind Pressure Rain
since 9am
mm
Weather Cloud Vis
km
Sea
Height
m
Swell
Dir
 
Speed
knots
Gust
knots
hPa Trend Height
m
Period
s
Dir
28/11:30pm 11.9 W 6 9 1020.1 - - - - - - - - -
28/11:00pm 12.0 W 8 11 1020.3 - - - - - - - - -
28/10:30pm 12.1 W 6 9 1020.4 - - - - - - - - -
28/10:00pm 12.6 W 7 10 1020.2 - - - - - - - - -
28/09:30pm 12.9 WNW 7 10 1020.1 - - - - - - - - -
28/09:00pm 13.6 WNW 8 12 1020.0 - - - - - - - - -
28/08:30pm 13.9 W 8 12 1019.8 - - - - - - - - -
28/08:00pm 14.1 WNW 8 12 1019.7 - - - - - - - - -
28/07:30pm 14.8 WNW 8 12 1019.5 - - - - - - - - -
28/07:00pm 15.4 WNW 11 17 1019.5 - - - - - - - - -
28/06:30pm 16.1 WNW 10 17 1019.3 - - - - - - - - -
28/06:00pm 16.6 WNW 10 15 1019.2 - - - - - - - - -
28/05:30pm 17.6 W 8 14 1019.1 - - - - - - - - -
28/05:00pm 17.4 W 11 17 1019.4 - - - - - - - - -
28/04:30pm 18.0 WNW 11 19 1019.3 - - - - - - - - -
28/04:00pm 17.9 WNW 10 17 1019.4 - - - - - - - - -
28/03:30pm 17.8 W 9 15 1019.6 - - - - - - - - -
28/03:00pm 17.1 WNW 10 19 1019.7 - - - - - - - - -
28/02:30pm 17.6 WNW 10 17 1019.9 - - - - - - - - -
28/02:00pm 17.3 W 7 13 1020.4 - - - - - - - - -
28/01:30pm 16.9 W 7 13 1020.7 - - - - - - - - -
28/01:00pm 16.9 W 8 13 1021.1 - - - - - - - - -
28/12:30pm 16.6 W 8 13 1021.5 - - - - - - - - -
28/12:00pm 15.3 WSW 8 13 1021.8 - - - - - - - - -
28/11:30am 14.9 WSW 7 14 1022.0 - - - - - - - - -
28/11:00am 14.4 WSW 7 12 1022.4 - - - - - - - - -
28/10:30am 13.9 W 8 13 1022.5 - - - - - - - - -
28/10:00am 13.3 W 8 13 1022.6 - - - - - - - - -
28/09:30am 13.1 W 9 16 1022.6 - - - - - - - - -
28/09:00am 12.8 W 7 12 1022.3 - - - - - - - - -
28/08:30am 12.5 W 10 15 1022.2 - - - - - - - - -
28/08:00am 12.2 SW 3 10 1021.7 - - - - - - - - -
28/07:30am 12.1 WSW 4 7 1021.6 - - - - - - - - -
28/07:00am 12.1 WSW 4 7 1021.4 - - - - - - - - -
28/06:30am 12.1 W 2 3 1021.1 - - - - - - - - -
28/06:00am 12.2 W 4 9 1021.1 - - - - - - - - -
28/05:30am 12.5 SW 5 8 1020.8 - - - - - - - - -
28/05:00am 12.4 SW 6 9 1020.8 - - - - - - - - -
28/04:30am 12.5 SW 10 14 1020.7 - - - - - - - - -
28/04:00am 12.6 WSW 12 17 1020.7 - - - - - - - - -
28/03:30am 12.5 WSW 12 17 1020.6 - - - - - - - - -
28/03:00am 12.6 WSW 13 19 1020.7 - - - - - - - - -
28/02:30am 12.5 WSW 13 17 1020.7 - - - - - - - - -
28/02:00am 12.6 WSW 9 14 1021.0 - - - - - - - - -
28/01:30am 12.9 WSW 11 18 1020.8 - - - - - - - - -
28/01:00am 13.1 SW 11 17 1021.0 - - - - - - - - -
28/12:30am 12.9 WSW 11 17 1021.1 - - - - - - - - -
28/12:00am 13.2 SW 11 16 1021.1 - - - - - - - - -
 
Date/Time
EDT
Temp

°C
Wind Pressure Rain
since 9am
mm
Weather Cloud Vis
km
Sea
Height
m
Swell
Dir
 
Speed
knots
Gust
knots
hPa Trend Height
m
Period
s
Dir
27/11:30pm 13.3 SW 13 22 1020.8 - - - - - - - - -
27/11:00pm 13.3 WSW 11 16 1021.0 - - - - - - - - -
27/10:30pm 13.6 WSW 11 18 1020.7 - - - - - - - - -
27/10:00pm 13.8 SW 7 11 1021.0 - - - - - - - - -
27/09:30pm 13.9 SW 6 10 1020.9 - - - - - - - - -
27/09:00pm 14.3 WSW 11 17 1020.1 - - - - - - - - -
27/08:30pm 14.5 SW 7 10 1019.9 - - - - - - - - -
27/08:00pm 14.8 WSW 7 11 1019.5 - - - - - - - - -
27/07:30pm 15.1 SW 12 20 1018.5 - - - - - - - - -
27/07:00pm 15.8 SW 11 21 1018.1 - - - - - - - - -
27/06:30pm 16.4 SW 8 16 1017.9 - - - - - - - - -
27/06:00pm 16.5 SW 11 25 1017.4 - - - - - - - - -
27/05:30pm 16.6 SW 13 21 1017.0 - - - - - - - - -
27/05:00pm 16.8 SW 15 25 1016.5 - - - - - - - - -
27/04:30pm 17.2 SSW 14 21 1016.0 - - - - - - - - -
27/04:00pm 17.4 SSW 17 27 1015.6 - - - - - - - - -
27/03:57pm 17.6 SSW 16 26 1015.5 - - - - - - - - -
27/03:30pm 17.4 SSW 17 26 1015.4 - - - - - - - - -
27/03:15pm 17.5 SSW 17 25 1015.2 - - - - - - - - -
27/03:00pm 17.5 SW 15 26 1015.2 - - - - - - - - -
27/02:41pm 17.5 SW 15 27 1015.1 - - - - - - - - -
27/02:30pm 17.5 SW 13 25 1014.9 - - - - - - - - -
27/02:09pm 17.4 SSW 16 26 1014.8 - - - - - - - - -
27/02:00pm 17.1 SSW 19 26 1014.8 - - - - - - - - -
27/01:30pm 17.0 SW 15 25 1014.8 - - - - - - - - -
27/01:13pm 16.8 SW 17 26 1014.9 - - - - - - - - -
27/01:00pm 16.6 WSW 13 22 1014.7 - - - - - - - - -
27/12:30pm 15.7 WSW 14 22 1014.9 - - - - - - - - -
27/12:00pm 15.3 SW 11 18 1014.7 - - - - - - - - -
27/11:30am 14.7 WSW 9 17 1014.2 - - - - - - - - -
27/11:00am 13.9 W 10 19 1014.0 - - - - - - - - -
27/10:30am 13.0 W 9 15 1013.7 - - - - - - - - -
27/10:00am 12.3 W 7 12 1013.8 - - - - - - - - -
27/09:30am 11.9 W 7 13 1013.6 - - - - - - - - -
27/09:00am 11.6 WNW 7 10 1013.3 - - - - - - - - -
27/08:30am 11.0 WNW 6 10 1013.1 - - - - - - - - -
27/08:00am 11.4 WSW 8 13 1012.8 - - - - - - - - -
27/07:30am 11.6 SSW 12 18 1012.1 - - - - - - - - -
27/07:00am 10.3 SSW 13 17 1011.9 - - - - - - - - -
27/06:30am 10.4 SSW 9 12 1011.6 - - - - - - - - -
27/06:00am 10.3 SSW 10 14 1011.1 - - - - - - - - -
27/05:30am 10.1 SSW 9 12 1010.6 - - - - - - - - -
27/05:00am 9.7 SSW 8 11 1010.1 - - - - - - - - -
27/04:30am 9.9 SW 7 10 1009.9 - - - - - - - - -
27/04:00am 9.3 W 7 11 1009.7 - - - - - - - - -
27/03:30am 10.2 SSE 3 7 1010.0 - - - - - - - - -
27/03:00am 10.0 WNW 2 4 1010.6 - - - - - - - - -
27/02:30am 9.5 SSW 5 8 1010.8 - - - - - - - - -
27/02:00am 10.0 WNW 5 11 1010.9 - - - - - - - - -
27/01:30am 9.7 SW 7 8 1011.0 - - - - - - - - -
27/01:00am 10.3 SW 5 9 1011.2 - - - - - - - - -
27/12:30am 10.2 SSW 3 5 1011.2 - - - - - - - - -
27/12:00am 10.4 SSW 5 7 1011.1 - - - - - - - - -
 
Date/Time
EDT
Temp

°C
Wind Pressure Rain
since 9am
mm
Weather Cloud Vis
km
Sea
Height
m
Swell
Dir
 
Speed
knots
Gust
knots
hPa Trend Height
m
Period
s
Dir
26/11:30pm 10.6 SW 5 8 1011.0 - - - - - - - - -
26/11:00pm 11.6 SSW 7 9 1010.7 - - - - - - - - -
26/10:30pm 10.8 SSW 7 9 1010.9 - - - - - - - - -
26/10:00pm 10.9 SSW 11 15 1011.0 - - - - - - - - -
26/09:30pm 10.8 S 7 10 1010.4 - - - - - - - - -
26/09:00pm 10.5 S 8 10 1010.4 - - - - - - - - -
26/08:30pm 10.5 S 11 13 1010.6 - - - - - - - - -
26/08:00pm 10.7 S 12 14 1010.6 - - - - - - - - -
26/07:30pm 10.6 S 11 13 1011.0 - - - - - - - - -
26/07:00pm 11.0 S 9 11 1011.1 - - - - - - - - -
26/06:30pm 11.1 S 7 9 1011.1 - - - - - - - - -
26/06:00pm 11.0 SE 5 7 1011.3 - - - - - - - - -
26/05:30pm 11.6 SSE 1 3 1011.2 - - - - - - - - -
26/05:00pm 11.7 SE 3 5 1010.8 - - - - - - - - -

Other Formats:

Comma delimited format used in spreadsheet applications
http://www.bom.gov.au/fwo/IDT60701/IDT60701.95963.axf

JavaScript Object Notation format (JSON) in row-major order
http://www.bom.gov.au/fwo/IDT60701/IDT60701.95963.json